Time;durP1;ratioP1;P1;durP2;ratioP2;P2;SDS_P1;SDS_P2;PMS_P1;PMS_P2;Temp;Humidity;BMP_temperature;BMP_pressure;BME280_temperature;BME280_humidity;BME280_pressure;Samples;Min_cycle;Max_cycle;Signal;HPM_P1;HPM_P2
2023/06/13 00:01:48;;;;;;;8.77;3.88;;;16.80;99.90;;;16.29;100.00;100833.38;4118954;28;20098;-75
2023/06/13 00:03:49;;;;;;;5.93;4.10;;;16.80;99.90;;;16.35;100.00;100829.94;4131610;28;20465;-75
2023/06/13 00:05:54;;;;;;;5.20;3.90;;;16.80;99.90;;;16.31;100.00;100826.84;4121588;28;20031;-75
2023/06/13 00:07:56;;;;;;;5.70;4.20;;;16.80;99.90;;;16.29;100.00;100823.53;4120076;28;20026;-75
2023/06/13 00:09:56;;;;;;;6.55;3.92;;;16.80;99.90;;;16.25;100.00;100818.78;4119781;28;20390;-75
2023/06/13 00:11:57;;;;;;;5.15;3.70;;;16.70;99.90;;;16.23;100.00;100818.16;4120064;28;20026;-75
2023/06/13 00:13:58;;;;;;;5.53;4.00;;;16.70;99.90;;;16.23;100.00;100826.97;4126649;28;20027;-75
2023/06/13 00:16:00;;;;;;;6.88;3.92;;;16.70;99.90;;;16.19;100.00;100819.56;4135842;28;20422;-75
2023/06/13 00:18:01;;;;;;;5.70;3.80;;;16.70;99.90;;;16.17;100.00;100810.94;4135979;28;20033;-75
2023/06/13 00:20:04;;;;;;;6.03;3.85;;;16.60;99.90;;;16.07;100.00;100797.94;4135939;28;20156;-75
2023/06/13 00:22:08;;;;;;;6.28;4.28;;;16.60;99.90;;;16.11;100.00;100815.19;4133735;28;20023;-75
2023/06/13 00:24:08;;;;;;;;;;;16.60;99.90;;;16.00;100.00;100800.56;4123743;28;20038;-75
2023/06/13 00:26:09;;;;;;;8.40;4.22;;;16.60;99.90;;;16.02;100.00;100805.69;4119784;28;19914;-75
2023/06/13 00:28:10;;;;;;;6.05;4.15;;;16.60;99.90;;;16.01;100.00;100801.34;4120307;28;20105;-75
2023/06/13 00:30:11;;;;;;;6.78;4.22;;;16.50;99.90;;;15.99;100.00;100800.72;4123278;28;20038;-75
2023/06/13 00:32:12;;;;;;;6.75;4.03;;;16.50;99.90;;;15.94;100.00;100803.16;4123267;28;20030;-75
2023/06/13 00:34:13;;;;;;;7.43;4.20;;;16.50;99.90;;;15.94;100.00;100803.16;4131411;28;20038;-75
2023/06/13 00:36:16;;;;;;;10.23;4.75;;;16.50;99.90;;;15.92;100.00;100800.66;4139118;28;20042;-75
2023/06/13 00:38:21;;;;;;;7.53;4.83;;;16.50;99.90;;;15.87;100.00;100802.25;4137760;28;20022;-75
2023/06/13 00:40:21;;;;;;;7.32;5.05;;;16.40;99.90;;;15.84;100.00;100797.28;4137706;28;20283;-75
2023/06/13 00:42:22;;;;;;;6.68;4.30;;;16.40;99.90;;;15.87;100.00;100791.59;4137799;28;20461;-75
2023/06/13 00:44:23;;;;;;;4.95;4.03;;;16.40;99.90;;;15.87;100.00;100800.41;4153974;28;20477;-75
2023/06/13 00:46:34;;;;;;;6.55;5.03;;;16.30;99.90;;;15.85;100.00;100796.28;4124089;28;20031;-75
2023/06/13 00:48:38;;;;;;;7.70;4.35;;;16.30;99.90;;;15.78;100.00;100790.91;4122911;28;20101;-75
2023/06/13 00:50:48;;;;;;;7.70;4.60;;;16.30;99.90;;;15.84;100.00;100791.97;4122821;28;20077;-75
2023/06/13 00:52:49;;;;;;;7.20;4.57;;;16.30;99.90;;;15.83;100.00;100791.16;4122802;28;21301;-75
2023/06/13 00:54:50;;;;;;;8.85;5.32;;;16.30;99.90;;;15.81;100.00;100784.38;4132586;28;20031;-75
2023/06/13 00:56:51;;;;;;;5.85;4.00;;;16.30;99.90;;;15.82;100.00;100788.69;4105453;28;20066;-75
2023/06/13 00:58:54;;;;;;;9.98;5.90;;;16.30;99.90;;;15.68;100.00;100763.78;4121407;28;20067;-75
2023/06/13 01:00:56;;;;;;;6.38;5.00;;;16.30;99.90;;;15.75;100.00;100774.50;4122479;28;20105;-75
2023/06/13 01:02:59;;;;;;;9.93;5.72;;;16.30;99.90;;;15.79;100.00;100789.06;4125849;28;20027;-76
2023/06/13 01:05:02;;;;;;;7.18;5.35;;;16.30;99.90;;;15.77;100.00;100780.47;4129303;28;20163;-75
2023/06/13 01:07:05;;;;;;;10.02;4.57;;;16.30;99.90;;;15.76;100.00;100789.44;4121231;28;20027;-75
2023/06/13 01:09:08;;;;;;;7.63;5.40;;;16.30;99.90;;;15.76;100.00;100787.63;4121302;28;20022;-75
2023/06/13 01:11:18;;;;;;;8.80;5.70;;;16.30;99.90;;;15.74;100.00;100788.81;4120965;28;20041;-75
2023/06/13 01:13:29;;;;;;;9.88;6.65;;;16.20;99.90;;;15.73;100.00;100789.81;4122935;28;20569;-75
2023/06/13 01:15:36;;;;;;;7.20;5.43;;;16.30;99.90;;;15.72;100.00;100788.16;4137114;28;20054;-75
2023/06/13 01:17:58;;;;;;;6.72;5.28;;;16.20;99.90;;;15.69;100.00;100777.91;4137506;28;20081;-75
2023/06/13 01:20:05;;;;;;;10.45;6.53;;;16.20;99.90;;;15.65;100.00;100779.31;4137426;28;20504;-75
2023/06/13 01:22:17;;;;;;;8.55;5.45;;;16.20;99.90;;;15.67;100.00;100779.94;4137119;28;20021;-75
2023/06/13 01:25:09;;;;;;;7.88;5.50;;;16.20;99.90;;;15.68;100.00;100773.63;4131924;28;20047;-75
2023/06/13 01:27:15;;;;;;;9.55;5.32;;;16.20;99.90;;;15.63;100.00;100757.38;4119287;28;20049;-75
2023/06/13 01:29:18;;;;;;;7.40;5.68;;;16.20;99.90;;;15.67;100.00;100767.47;4137098;28;20026;-75
2023/06/13 01:31:23;;;;;;;9.02;6.63;;;16.20;99.90;;;15.64;100.00;100759.03;4147878;28;20030;-75
2023/06/13 01:33:25;;;;;;;8.70;6.38;;;16.10;99.90;;;15.63;100.00;100763.53;4120685;28;20117;-75
2023/06/13 01:35:27;;;;;;;7.93;6.72;;;16.10;99.90;;;15.60;100.00;100755.94;4129594;28;20058;-75
2023/06/13 01:37:28;;;;;;;10.45;7.13;;;16.10;99.90;;;15.61;100.00;100751.44;4153288;28;20547;-75
2023/06/13 01:39:34;;;;;;;7.95;6.93;;;16.10;99.90;;;15.62;100.00;100747.78;4135993;28;20034;-75
2023/06/13 01:41:35;;;;;;;9.05;7.10;;;16.10;99.90;;;15.57;100.00;100742.19;4121495;28;20034;-75
2023/06/13 01:43:35;;;;;;;12.57;8.10;;;16.10;99.90;;;15.56;100.00;100740.56;4124257;28;20417;-75
2023/06/13 01:45:36;;;;;;;10.82;7.07;;;16.10;99.90;;;15.52;100.00;100733.94;4129785;28;20031;-75
2023/06/13 01:48:29;;;;;;;11.18;7.60;;;16.10;99.90;;;15.50;100.00;100728.84;4120916;28;20050;-75
2023/06/13 01:50:55;;;;;;;10.77;7.75;;;16.00;99.90;;;15.52;100.00;100737.44;4121891;28;20023;-75
2023/06/13 01:53:06;;;;;;;11.45;7.35;;;16.00;99.90;;;15.48;100.00;100729.00;4120467;28;20101;-75
2023/06/13 01:55:16;;;;;;;12.35;8.07;;;16.00;99.90;;;15.47;100.00;100727.34;4131360;28;20043;-75
2023/06/13 01:57:31;;;;;;;15.00;7.28;;;16.00;99.90;;;15.48;100.00;100728.19;4136080;28;20101;-76
2023/06/13 01:59:33;;;;;;;10.68;7.55;;;16.00;99.90;;;15.47;100.00;100724.69;4137645;28;20037;-75
2023/06/13 02:01:38;;;;;;;12.00;6.68;;;16.00;99.90;;;15.45;100.00;100718.72;4120785;28;20045;-75
2023/06/13 02:03:39;;;;;;;12.57;8.25;;;16.00;99.90;;;15.47;100.00;100714.06;4152685;28;20119;-75
2023/06/13 02:05:40;;;;;;;10.63;8.18;;;16.00;99.90;;;15.39;100.00;100708.84;4122936;28;20577;-75
2023/06/13 02:07:42;;;;;;;13.35;8.23;;;16.00;99.90;;;15.48;100.00;100709.56;4121707;28;20034;-75
2023/06/13 02:09:43;;;;;;;12.43;8.18;;;16.00;99.90;;;15.44;100.00;100718.91;4136691;28;20030;-75
2023/06/13 02:11:44;;;;;;;9.00;7.47;;;16.00;99.90;;;15.43;100.00;100720.75;4121357;28;20077;-75
2023/06/13 02:13:45;;;;;;;16.02;9.23;;;16.00;99.90;;;15.41;100.00;100717.44;4124586;28;20021;-75
2023/06/13 02:15:46;;;;;;;11.48;7.85;;;16.00;99.90;;;15.40;100.00;100723.78;4121546;28;20518;-75
2023/06/13 02:17:47;;;;;;;12.65;8.38;;;16.00;99.90;;;15.38;100.00;100714.34;4121827;28;20066;-75
2023/06/13 02:19:48;;;;;;;9.88;7.85;;;15.90;99.90;;;15.36;100.00;100722.50;4120190;28;20062;-75
2023/06/13 02:21:49;;;;;;;13.25;8.80;;;15.90;99.90;;;15.37;100.00;100720.66;4122495;28;20101;-75
2023/06/13 02:23:50;;;;;;;14.40;8.50;;;15.90;99.90;;;15.36;100.00;100725.16;4123798;28;20576;-75
2023/06/13 02:25:51;;;;;;;10.10;7.82;;;15.90;99.90;;;15.36;100.00;100730.47;4121134;28;20027;-75
2023/06/13 02:27:52;;;;;;;12.80;8.38;;;15.90;99.90;;;15.35;100.00;100728.81;4121249;28;20042;-75
2023/06/13 02:29:54;;;;;;;11.65;7.82;;;15.80;99.90;;;15.32;100.00;100729.19;4121498;28;20023;-75
2023/06/13 02:31:55;;;;;;;11.30;7.65;;;15.90;99.90;;;15.31;100.00;100727.56;4120051;28;20085;-75
2023/06/13 02:33:56;;;;;;;14.20;8.55;;;15.80;99.90;;;15.18;100.00;100710.63;4121380;28;20026;-75
2023/06/13 02:35:57;;;;;;;13.90;8.65;;;15.80;99.90;;;15.25;100.00;100724.81;4121376;28;20035;-75
2023/06/13 02:37:58;;;;;;;12.73;9.05;;;15.80;99.90;;;15.21;100.00;100726.19;4121118;28;20109;-75
2023/06/13 02:39:59;;;;;;;13.32;8.90;;;15.70;99.90;;;15.16;100.00;100731.25;4120762;28;20031;-75
2023/06/13 02:41:59;;;;;;;14.63;9.65;;;15.70;99.90;;;15.12;100.00;100738.75;4121154;28;20027;-75
2023/06/13 02:44:00;;;;;;;15.25;9.25;;;15.70;99.90;;;15.07;100.00;100737.69;4121053;28;20081;-75
2023/06/13 02:46:02;;;;;;;15.90;9.48;;;15.60;99.90;;;15.00;100.00;100732.28;4120938;28;20031;-75
2023/06/13 02:48:03;;;;;;;13.82;8.88;;;15.60;99.90;;;14.99;100.00;100732.47;4120790;28;20038;-75
2023/06/13 02:50:04;;;;;;;14.10;8.30;;;15.50;99.90;;;14.96;100.00;100736.31;4119784;28;20158;-75
2023/06/13 02:52:06;;;;;;;12.32;9.05;;;15.50;99.90;;;14.89;100.00;100720.31;4120932;28;20099;-75
2023/06/13 02:54:07;;;;;;;13.93;8.07;;;15.50;99.90;;;14.93;100.00;100728.72;4120912;28;20038;-75
2023/06/13 02:56:08;;;;;;;14.10;8.82;;;15.50;99.90;;;14.88;100.00;100717.81;4120482;28;20117;-75
2023/06/13 02:58:09;;;;;;;14.00;8.82;;;15.40;99.90;;;14.85;100.00;100726.97;4121072;28;20077;-75
2023/06/13 03:00:16;;;;;;;15.13;8.57;;;15.40;99.90;;;14.84;100.00;100730.63;4120800;28;20034;-75
2023/06/13 03:02:20;;;;;;;12.55;9.13;;;15.40;99.90;;;14.77;100.00;100726.25;4120892;28;20082;-75
2023/06/13 03:04:23;;;;;;;13.82;9.73;;;15.40;99.90;;;14.76;100.00;100722.75;4133736;28;20061;-75
2023/06/13 03:06:24;;;;;;;16.90;9.88;;;15.30;99.90;;;14.75;100.00;100728.28;4119634;28;20033;-75
2023/06/13 03:08:28;;;;;;;14.20;9.60;;;15.30;99.90;;;14.76;100.00;100727.25;4119475;28;20027;-75
2023/06/13 03:10:29;;;;;;;16.38;10.32;;;15.30;99.90;;;14.77;100.00;100719.09;4120451;28;20438;-75
2023/06/13 03:12:30;;;;;;;16.15;9.85;;;15.30;99.90;;;14.73;100.00;100723.13;4121785;28;20037;-75
2023/06/13 03:14:32;;;;;;;17.05;10.80;;;15.30;99.90;;;14.71;100.00;100717.19;4130619;28;20031;-75
2023/06/13 03:16:35;;;;;;;14.55;9.70;;;15.20;99.90;;;14.69;100.00;100721.88;4120438;28;20527;-75
2023/06/13 03:18:36;;;;;;;14.25;9.45;;;15.20;99.90;;;14.65;100.00;100727.72;4120524;28;20132;-75
2023/06/13 03:20:37;;;;;;;12.15;9.00;;;15.20;99.90;;;14.63;100.00;100706.66;4119412;28;20030;-75
2023/06/13 03:22:38;;;;;;;12.20;7.95;;;15.20;99.90;;;14.65;100.00;100709.94;4127090;28;20089;-75
2023/06/13 03:24:44;;;;;;;16.15;9.70;;;15.20;99.90;;;14.64;100.00;100712.78;4135413;28;20033;-75
2023/06/13 03:26:45;;;;;;;13.77;9.43;;;15.20;99.90;;;14.64;100.00;100712.78;4135316;28;20501;-75
2023/06/13 03:28:46;;;;;;;17.52;10.43;;;15.20;99.90;;;14.55;100.00;100697.94;4135508;28;20029;-75
2023/06/13 03:30:47;;;;;;;13.60;9.45;;;15.20;99.90;;;14.58;100.00;100710.84;4136545;28;20026;-75
2023/06/13 03:32:48;;;;;;;13.90;9.13;;;15.10;99.90;;;14.54;100.00;100706.94;4135151;28;20375;-76
2023/06/13 03:34:50;;;;;;;13.25;9.43;;;15.10;99.90;;;14.49;100.00;100701.31;4136421;28;20026;-75
2023/06/13 03:36:51;;;;;;;16.08;9.77;;;15.10;99.90;;;14.51;100.00;100712.59;4135280;28;20030;-75
2023/06/13 03:38:52;;;;;;;14.57;9.52;;;15.10;99.90;;;14.47;100.00;100706.81;4135285;28;20109;-75
2023/06/13 03:40:53;;;;;;;13.07;9.48;;;15.10;99.90;;;14.47;100.00;100711.31;4136182;28;20023;-75
2023/06/13 03:42:54;;;;;;;14.15;10.05;;;15.00;99.90;;;14.44;100.00;100715.16;4136331;28;20038;-75
2023/06/13 03:44:55;;;;;;;14.30;9.77;;;15.00;99.90;;;14.44;100.00;100716.97;4136310;28;20072;-75
2023/06/13 03:46:57;;;;;;;12.68;8.40;;;15.00;99.90;;;14.43;100.00;100728.59;4136339;28;20394;-75
2023/06/13 03:48:58;;;;;;;14.13;10.00;;;15.00;99.90;;;14.38;100.00;100718.53;4136401;28;20056;-75
2023/06/13 03:50:59;;;;;;;15.25;9.60;;;15.00;99.90;;;14.38;100.00;100714.06;4136272;28;20026;-75
2023/06/13 03:53:00;;;;;;;11.93;8.80;;;15.00;99.90;;;14.39;100.00;100714.88;4136192;28;20089;-75
2023/06/13 03:55:00;;;;;;;18.15;10.18;;;14.90;99.90;;;14.39;100.00;100714.88;4134966;28;20046;-75
2023/06/13 03:57:02;;;;;;;13.07;9.30;;;14.90;99.90;;;14.42;100.00;100721.66;4134889;28;20137;-75
2023/06/13 03:59:03;;;;;;;15.13;9.18;;;15.00;99.90;;;14.43;100.00;100716.16;4136077;28;20045;-75
2023/06/13 04:01:06;;;;;;;13.93;9.38;;;15.00;99.90;;;14.43;100.00;100715.31;4135883;28;20026;-75
2023/06/13 04:03:10;;;;;;;14.05;9.70;;;15.00;99.90;;;14.43;100.00;100717.97;4135736;28;20375;-75
2023/06/13 04:05:12;;;;;;;17.73;9.75;;;15.00;99.90;;;14.44;100.00;100722.28;4126640;28;20077;-75
2023/06/13 04:07:14;;;;;;;13.18;8.80;;;15.00;99.90;;;14.48;100.00;100723.59;4119924;28;20037;-75
2023/06/13 04:09:15;;;;;;;11.45;8.38;;;15.00;99.90;;;14.54;100.00;100725.50;4120145;28;20101;-75
2023/06/13 04:11:16;;;;;;;13.38;9.70;;;15.10;99.90;;;14.54;100.00;100721.03;4125878;28;20119;-75
2023/06/13 04:13:17;;;;;;;13.73;9.13;;;15.10;99.90;;;14.60;100.00;100732.75;4134844;28;20025;-75
2023/06/13 04:15:17;;;;;;;12.73;8.73;;;15.10;99.90;;;14.51;100.00;100718.75;4119976;28;20027;-74
2023/06/13 04:17:18;;;;;;;11.23;7.43;;;15.10;99.90;;;14.58;100.00;100722.28;4119820;28;20086;-75
2023/06/13 04:19:20;;;;;;;12.38;8.50;;;15.10;99.90;;;14.56;100.00;100726.97;4118847;28;20033;-75
2023/06/13 04:21:24;;;;;;;12.50;8.13;;;15.20;99.90;;;14.55;100.00;100725.31;4118878;28;20141;-75
2023/06/13 04:23:28;;;;;;;12.88;8.00;;;15.10;99.90;;;14.54;100.00;100726.34;4148621;28;20525;-75
2023/06/13 04:25:30;;;;;;;11.02;7.55;;;15.10;99.90;;;14.51;100.00;100731.19;4135852;28;20509;-75
2023/06/13 04:27:32;;;;;;;12.20;8.20;;;15.10;99.90;;;14.45;100.00;100730.09;4136077;28;20521;-75
2023/06/13 04:29:34;;;;;;;11.05;8.15;;;15.10;99.90;;;14.45;100.00;100737.22;4134793;28;20019;-75
2023/06/13 04:31:38;;;;;;;11.77;7.85;;;15.00;99.90;;;14.45;100.00;100738.06;4135733;28;20119;-75
2023/06/13 04:33:39;;;;;;;11.05;8.02;;;15.00;99.90;;;14.45;100.00;100747.84;4130840;28;20034;-75
2023/06/13 04:35:44;;;;;;;12.82;8.05;;;15.00;99.90;;;14.44;100.00;100736.38;4118433;28;20042;-75
2023/06/13 04:37:46;;;;;;;12.82;7.57;;;15.00;99.90;;;14.47;100.00;100745.81;4127421;28;20100;-75
2023/06/13 04:39:47;;;;;;;11.05;6.97;;;15.00;99.90;;;14.52;100.00;100743.44;4121708;28;20084;-75
2023/06/13 04:41:48;;;;;;;12.93;7.53;;;15.00;99.90;;;14.54;100.00;100746.75;4119774;28;20499;-75
2023/06/13 04:43:49;;;;;;;10.15;7.93;;;15.00;99.90;;;14.49;100.00;100747.28;4119893;28;20030;-75
2023/06/13 04:45:50;;;;;;;12.43;9.20;;;15.10;99.90;;;14.55;100.00;100745.72;4126863;28;20034;-75
2023/06/13 04:47:51;;;;;;;11.57;8.40;;;15.10;99.90;;;14.60;100.00;100746.84;4134497;28;20038;-75
2023/06/13 04:49:58;;;;;;;9.70;7.50;;;15.10;99.90;;;14.67;100.00;100746.94;4135793;28;20038;-75
2023/06/13 04:51:59;;;;;;;10.07;7.25;;;15.10;99.90;;;14.76;100.00;100849.41;4134746;28;20023;-75
2023/06/13 04:54:00;;;;;;;9.05;6.90;;;15.20;99.90;;;14.76;100.00;100961.75;4135671;28;20023;-76
2023/06/13 04:56:01;;;;;;;10.95;7.45;;;15.30;99.90;;;14.80;100.00;100768.38;4134333;28;20105;-75
2023/06/13 04:58:02;;;;;;;12.45;8.10;;;15.30;99.90;;;14.82;100.00;100756.56;4135820;28;20097;-75
2023/06/13 05:00:08;;;;;;;10.48;6.75;;;15.40;99.90;;;14.94;100.00;100751.59;4135732;28;20077;-75
2023/06/13 05:02:09;;;;;;;11.68;7.70;;;15.40;99.90;;;15.05;100.00;100756.47;4135837;28;20445;-75
2023/06/13 05:04:10;;;;;;;9.70;7.10;;;15.50;99.90;;;15.16;100.00;100756.00;4134314;28;20034;-75
2023/06/13 05:06:12;;;;;;;9.63;7.15;;;15.60;99.90;;;15.21;100.00;100756.25;4119659;28;20077;-75
2023/06/13 05:08:15;;;;;;;8.98;7.32;;;15.70;99.90;;;15.25;100.00;100754.06;4119601;28;20110;-75
2023/06/13 05:10:16;;;;;;;9.85;7.72;;;15.70;99.90;;;15.36;100.00;100750.91;4125939;28;20031;-75
2023/06/13 05:12:17;;;;;;;10.77;8.65;;;15.80;99.90;;;15.39;100.00;100755.84;4119433;28;20045;-74
2023/06/13 05:14:18;;;;;;;12.18;8.18;;;15.90;99.90;;;15.48;100.00;100760.09;4118798;28;20153;-75
2023/06/13 05:16:19;;;;;;;9.13;6.85;;;15.90;99.90;;;15.54;100.00;100753.19;4122198;28;20035;-75
2023/06/13 05:18:24;;;;;;;8.52;6.78;;;16.00;99.90;;;15.63;100.00;100754.72;4122512;28;20134;-75
2023/06/13 05:20:26;;;;;;;8.25;6.50;;;16.10;99.90;;;15.77;100.00;100764.50;4122231;28;20026;-75
2023/06/13 05:22:28;;;;;;;9.63;7.63;;;16.10;99.90;;;15.80;100.00;100754.28;4123701;28;20026;-75
2023/06/13 05:24:29;;;;;;;8.77;6.80;;;16.20;99.90;;;15.81;100.00;100758.59;4120542;28;20034;-75
2023/06/13 05:26:30;;;;;;;10.52;7.50;;;16.30;99.90;;;15.92;100.00;100767.91;4120877;28;20082;-75
2023/06/13 05:28:31;;;;;;;13.18;7.35;;;16.40;99.90;;;15.99;100.00;100764.31;4121011;28;20038;-76
2023/06/13 05:30:32;;;;;;;9.57;7.05;;;16.40;99.90;;;15.99;100.00;100772.28;4122306;28;20019;-75
2023/06/13 05:32:33;;;;;;;7.32;5.82;;;16.50;99.90;;;16.01;100.00;100756.94;4122604;28;20487;-75
2023/06/13 05:34:34;;;;;;;8.48;6.18;;;16.50;99.90;;;16.12;100.00;100766.28;4122059;28;20034;-75
2023/06/13 05:36:34;;;;;;;9.43;6.50;;;16.60;99.90;;;16.20;100.00;100768.78;4122022;28;20046;-75
2023/06/13 05:38:36;;;;;;;9.27;7.13;;;16.60;99.90;;;16.25;100.00;100773.53;4122197;28;20026;-75
2023/06/13 05:40:38;;;;;;;7.30;5.70;;;16.70;99.90;;;16.25;100.00;100768.19;4121931;28;20474;-75
2023/06/13 05:42:38;;;;;;;8.82;5.70;;;16.70;99.90;;;16.32;100.00;100766.44;4120810;28;20564;-75
2023/06/13 05:44:39;;;;;;;7.47;6.25;;;16.70;99.90;;;16.33;100.00;100771.56;4124398;28;20113;-75
2023/06/13 05:46:41;;;;;;;9.27;6.90;;;16.80;99.90;;;16.32;100.00;100764.59;4129577;28;20034;-75
2023/06/13 05:48:42;;;;;;;8.32;7.00;;;16.80;99.90;;;16.35;100.00;100763.38;4118660;28;20038;-75
2023/06/13 05:50:43;;;;;;;10.45;5.82;;;16.80;99.90;;;16.35;100.00;100758.88;4142774;28;20037;-75
2023/06/13 05:52:44;;;;;;;10.45;6.95;;;16.80;99.90;;;16.41;100.00;100755.44;4126327;28;20023;-75
2023/06/13 05:54:46;;;;;;;9.68;6.82;;;16.90;99.90;;;16.33;100.00;100758.28;4127309;28;20042;-75
2023/06/13 05:56:47;;;;;;;8.13;6.50;;;16.90;99.90;;;16.32;100.00;100748.63;4129189;28;20086;-75
2023/06/13 05:58:49;;;;;;;7.20;5.85;;;16.80;99.90;;;16.39;100.00;100759.34;4129460;28;20030;-75
2023/06/13 06:00:52;;;;;;;9.40;6.38;;;16.90;99.90;;;16.46;100.00;100755.69;4129334;28;20397;-76
2023/06/13 06:02:53;;;;;;;8.95;6.63;;;16.90;99.90;;;16.48;100.00;100760.84;4136471;28;20109;-75
2023/06/13 06:04:56;;;;;;;9.57;6.13;;;16.90;99.90;;;16.50;100.00;100759.63;4135848;28;20023;-75
2023/06/13 06:06:57;;;;;;;6.88;5.57;;;17.00;99.90;;;16.53;100.00;100766.38;4152813;28;20022;-75
2023/06/13 06:08:58;;;;;;;7.25;6.07;;;17.00;99.90;;;16.58;100.00;100761.31;4122692;28;20019;-75
2023/06/13 06:10:59;;;;;;;7.07;5.60;;;17.00;99.90;;;16.64;100.00;100762.38;4121511;28;20030;-74
2023/06/13 06:12:59;;;;;;;8.80;6.60;;;17.10;99.90;;;16.57;100.00;100765.03;4124312;28;20065;-75
2023/06/13 06:15:02;;;;;;;7.60;6.13;;;17.00;99.90;;;16.64;100.00;100767.72;4135454;28;20061;-75
2023/06/13 06:17:03;;;;;;;7.07;5.80;;;17.10;99.90;;;16.82;100.00;100768.88;4129962;28;20035;-75
2023/06/13 06:19:04;;;;;;;6.53;5.07;;;17.20;99.90;;;16.92;100.00;100764.03;4137660;28;20057;-75
2023/06/13 06:21:06;;;;;;;8.75;6.13;;;17.30;99.90;;;16.96;100.00;100761.78;4136609;28;20032;-75
2023/06/13 06:23:07;;;;;;;7.07;5.65;;;17.40;99.90;;;17.03;100.00;100766.13;4136338;28;20052;-75
2023/06/13 06:25:12;;;;;;;7.57;5.18;;;17.40;99.90;;;17.05;100.00;100765.94;4136274;28;20031;-74
2023/06/13 06:27:13;;;;;;;7.90;6.03;;;17.50;99.90;;;17.03;100.00;100767.97;4121622;28;20486;-75
2023/06/13 06:29:13;;;;;;;6.72;5.43;;;17.50;99.90;;;17.14;100.00;100762.09;4120167;28;20023;-75
2023/06/13 06:31:15;;;;;;;7.95;5.80;;;17.60;99.90;;;17.17;100.00;100766.19;4121288;28;20027;-75
2023/06/13 06:33:16;;;;;;;5.50;4.75;;;17.60;99.90;;;17.33;100.00;100764.00;4121172;28;20422;-74
2023/06/13 06:35:17;;;;;;;5.03;4.30;;;17.70;99.90;;;17.47;100.00;100759.56;4127288;28;20046;-75
2023/06/13 06:37:17;;;;;;;6.78;4.47;;;17.80;99.90;;;17.58;100.00;100762.50;4121240;28;20035;-75
2023/06/13 06:39:19;;;;;;;6.85;5.03;;;17.90;99.90;;;17.71;100.00;100759.03;4121239;28;20031;-74
2023/06/13 06:41:20;;;;;;;5.70;4.70;;;18.10;99.90;;;17.81;100.00;100758.63;4120945;28;20027;-75
2023/06/13 06:43:21;;;;;;;6.38;5.03;;;18.10;99.90;;;17.90;100.00;100760.91;4121175;28;20410;-75
2023/06/13 06:45:22;;;;;;;6.82;5.13;;;18.30;99.90;;;18.01;100.00;100762.19;4120917;28;20034;-75
2023/06/13 06:47:23;;;;;;;5.97;4.82;;;18.40;99.90;;;18.07;100.00;100769.38;4128643;28;20089;-75
2023/06/13 06:49:24;;;;;;;6.20;4.60;;;18.50;99.90;;;18.08;100.00;100749.63;4123907;28;20027;-74
2023/06/13 06:51:25;;;;;;;5.53;4.32;;;18.50;99.90;;;18.30;100.00;100761.78;4121068;28;20027;-75
2023/06/13 06:53:26;;;;;;;5.70;4.43;;;18.70;99.90;;;18.22;100.00;100760.09;4121019;28;20033;-75
2023/06/13 06:55:26;;;;;;;7.22;4.75;;;18.70;99.90;;;18.29;100.00;100760.13;4130686;28;20030;-75
2023/06/13 06:57:27;;;;;;;6.88;5.45;;;18.80;99.90;;;18.38;100.00;100763.41;4137087;28;20030;-75
2023/06/13 06:59:29;;;;;;;7.88;4.85;;;18.80;99.90;;;18.54;100.00;100766.53;4137000;28;20105;-75
2023/06/13 07:01:30;;;;;;;5.05;3.63;;;18.90;99.90;;;18.85;100.00;100754.31;4136982;28;20038;-75
2023/06/13 07:03:31;;;;;;;4.60;3.70;;;19.10;99.90;;;19.12;100.00;100761.22;4135551;28;20111;-75
2023/06/13 07:05:32;;;;;;;6.25;4.45;;;19.30;99.90;;;19.21;100.00;100760.78;4124914;28;20023;-75
2023/06/13 07:07:33;;;;;;;8.15;4.78;;;19.40;99.90;;;19.26;100.00;100769.00;4120614;28;20027;-75
2023/06/13 07:09:33;;;;;;;6.22;5.22;;;19.60;99.90;;;19.39;100.00;100757.44;4120556;28;20034;-75
2023/06/13 07:11:34;;;;;;;8.18;5.13;;;19.60;99.90;;;19.51;100.00;100755.75;4120613;28;20501;-75
2023/06/13 07:13:35;;;;;;;6.30;4.50;;;19.80;99.90;;;19.66;100.00;100769.66;4120605;28;20026;-75
2023/06/13 07:15:36;;;;;;;5.82;4.50;;;19.90;99.90;;;19.61;100.00;100761.47;4120386;28;20512;-75
2023/06/13 07:17:37;;;;;;;5.85;4.40;;;20.00;99.90;;;19.68;100.00;100756.09;4120811;28;20027;-75
2023/06/13 07:19:38;;;;;;;7.45;4.85;;;20.10;99.90;;;19.61;100.00;100756.13;4120735;28;20043;-75
2023/06/13 07:21:39;;;;;;;5.28;3.97;;;20.20;99.90;;;19.78;100.00;100761.75;4124269;28;20034;-75
2023/06/13 07:23:40;;;;;;;6.55;3.70;;;20.20;99.90;;;19.85;100.00;100758.03;4136386;28;20494;-75
2023/06/13 07:25:43;;;;;;;7.20;4.22;;;20.20;99.90;;;20.02;100.00;100761.00;4136275;28;20046;-75
2023/06/13 07:27:44;;;;;;;6.53;4.05;;;20.40;99.90;;;20.07;100.00;100766.50;4136539;28;20034;-75
2023/06/13 07:29:45;;;;;;;4.75;3.53;;;20.50;99.90;;;20.09;100.00;100760.94;4135433;28;20023;-75
2023/06/13 07:31:46;;;;;;;5.10;3.78;;;20.50;99.90;;;20.27;100.00;100755.69;4136356;28;20089;-75
2023/06/13 07:33:47;;;;;;;5.72;2.83;;;20.60;99.90;;;20.24;100.00;100761.44;4136508;28;20026;-75
2023/06/13 07:35:48;;;;;;;4.68;3.38;;;20.70;99.90;;;20.42;100.00;100761.53;4135137;28;20038;-74
2023/06/13 07:37:49;;;;;;;4.78;3.38;;;20.80;99.90;;;20.52;100.00;100763.72;4135727;28;20117;-75
2023/06/13 07:39:50;;;;;;;6.53;4.00;;;20.90;99.90;;;20.40;100.00;100761.75;4134737;28;20156;-75
2023/06/13 07:41:51;;;;;;;4.35;3.38;;;20.90;99.90;;;20.47;100.00;100764.38;4136364;28;20033;-75
2023/06/13 07:43:52;;;;;;;4.45;3.10;;;20.90;99.90;;;20.47;100.00;100766.22;4136359;28;20030;-75
2023/06/13 07:45:53;;;;;;;5.07;3.47;;;20.90;99.90;;;20.34;100.00;100759.09;4136267;28;20029;-75
2023/06/13 07:47:53;;;;;;;6.22;3.58;;;20.90;99.90;;;20.29;100.00;100751.75;4119047;28;20030;-75
2023/06/13 07:49:54;;;;;;;5.03;3.70;;;20.90;99.90;;;20.29;100.00;100758.97;4136279;28;20556;-75
2023/06/13 07:51:55;;;;;;;5.53;3.03;;;20.80;99.90;;;20.50;100.00;100758.56;4136230;28;20033;-75
2023/06/13 07:53:56;;;;;;;4.78;3.20;;;20.90;99.90;;;20.50;100.00;100753.22;4136333;28;20018;-75
2023/06/13 07:55:57;;;;;;;5.00;3.42;;;20.90;99.90;;;20.55;100.00;100753.34;4135877;28;20540;-75
2023/06/13 07:57:58;;;;;;;4.72;3.60;;;21.00;99.90;;;20.71;100.00;100754.66;4131901;28;20030;-75
2023/06/13 07:59:58;;;;;;;5.45;3.25;;;21.10;99.90;;;20.72;100.00;100756.31;4120310;28;20458;-75
2023/06/13 08:01:59;;;;;;;3.42;3.13;;;21.20;99.90;;;20.62;100.00;100754.13;4120038;28;20026;-75
2023/06/13 08:04:00;;;;;;;5.35;3.83;;;21.20;99.90;;;20.67;100.00;100748.13;4132815;28;20034;-75
2023/06/13 08:06:01;;;;;;;5.43;3.70;;;21.20;99.90;;;20.58;100.00;100747.56;4119922;28;20375;-75
2023/06/13 08:08:02;;;;;;;7.28;3.75;;;21.20;99.90;;;20.73;100.00;100756.06;4119043;28;20019;-75
2023/06/13 08:10:04;;;;;;;3.85;3.30;;;21.30;99.90;;;20.82;100.00;100752.06;4118494;28;20034;-75
2023/06/13 08:12:06;;;;;;;4.43;3.30;;;21.30;99.90;;;20.88;100.00;100753.84;4120111;28;20027;-75
2023/06/13 08:14:08;;;;;;;4.97;2.60;;;21.40;99.90;;;20.94;100.00;100752.13;4119832;28;20023;-75
2023/06/13 08:16:09;;;;;;;4.03;3.25;;;21.50;99.90;;;21.14;100.00;100746.59;4119863;28;20049;-75
2023/06/13 08:18:10;;;;;;;3.85;3.08;;;21.60;99.90;;;21.22;100.00;100749.78;4120171;28;20509;-75
2023/06/13 08:20:11;;;;;;;3.88;3.00;;;21.70;99.90;;;21.24;100.00;100754.91;4119868;28;20122;-75
2023/06/13 08:22:12;;;;;;;3.83;3.20;;;21.80;99.90;;;21.32;100.00;100741.19;4125655;28;20106;-75